createdAt,value
2018-05-31T00:00:33.202Z,99.00
2018-05-31T00:03:01.347Z,99.00
2018-05-31T00:05:29.520Z,99.10
2018-05-31T00:07:57.679Z,98.50
2018-05-31T00:10:25.935Z,98.20
2018-05-31T00:12:54.088Z,98.30
2018-05-31T00:15:22.250Z,98.70
2018-05-31T00:17:50.391Z,99.70
2018-05-31T00:20:18.627Z,99.90
2018-05-31T00:22:46.772Z,99.50
2018-05-31T00:25:14.969Z,99.20
2018-05-31T00:27:43.102Z,99.80
2018-05-31T00:30:11.307Z,99.80
2018-05-31T00:32:40.250Z,99.10
2018-05-31T00:35:08.451Z,99.10
2018-05-31T00:37:36.628Z,99.00
2018-05-31T00:40:04.827Z,99.10
2018-05-31T00:42:33.075Z,99.30
2018-05-31T00:45:02.050Z,99.50
2018-05-31T00:47:30.223Z,99.50
2018-05-31T00:49:58.519Z,99.10
2018-05-31T00:52:26.688Z,98.90
2018-05-31T00:54:54.903Z,99.00
2018-05-31T00:57:23.082Z,99.20
2018-05-31T00:59:51.263Z,99.90
2018-05-31T01:02:19.471Z,99.90
2018-05-31T01:04:49.186Z,99.90
2018-05-31T01:07:17.383Z,99.90
2018-05-31T01:09:46.327Z,99.90
2018-05-31T01:12:14.534Z,99.90
2018-05-31T01:14:42.806Z,99.90
2018-05-31T01:17:11.074Z,99.90
2018-05-31T01:19:39.407Z,99.90
2018-05-31T01:22:07.613Z,99.90
2018-05-31T01:24:35.793Z,99.90
2018-05-31T01:27:03.994Z,99.90
2018-05-31T01:29:32.383Z,99.90
2018-05-31T01:32:00.608Z,99.90
2018-05-31T01:34:28.795Z,99.90
2018-05-31T01:36:56.995Z,99.90
2018-05-31T01:39:25.201Z,99.90
2018-05-31T01:41:53.390Z,99.90
2018-05-31T01:44:21.566Z,99.90
2018-05-31T01:46:49.762Z,99.90
2018-05-31T01:49:18.090Z,99.90
2018-05-31T01:51:46.295Z,99.90
2018-05-31T01:54:14.470Z,99.90
2018-05-31T01:56:42.687Z,99.90
2018-05-31T01:59:10.991Z,99.90
2018-05-31T02:01:39.209Z,99.90
2018-05-31T02:04:07.386Z,99.90
2018-05-31T02:06:35.591Z,99.90
2018-05-31T02:09:03.769Z,99.90
2018-05-31T02:11:31.987Z,99.90
2018-05-31T02:14:00.274Z,99.90
2018-05-31T02:16:29.982Z,99.90
2018-05-31T02:18:58.234Z,99.90
2018-05-31T02:21:26.411Z,99.90
2018-05-31T02:23:54.615Z,99.90
2018-05-31T02:26:23.583Z,99.90
2018-05-31T02:28:51.847Z,99.90
2018-05-31T02:31:20.023Z,99.90
2018-05-31T02:33:48.219Z,99.90
2018-05-31T02:36:16.403Z,99.90
2018-05-31T02:38:45.366Z,99.90
2018-05-31T02:41:13.538Z,99.90
2018-05-31T02:43:41.746Z,99.90
2018-05-31T02:46:10.698Z,99.90
2018-05-31T02:48:38.955Z,99.90
2018-05-31T02:51:07.139Z,99.90
2018-05-31T02:53:35.339Z,99.90
2018-05-31T02:56:03.511Z,99.90
2018-05-31T02:58:31.758Z,99.90
2018-05-31T03:00:59.935Z,99.90
2018-05-31T03:03:28.135Z,99.90
2018-05-31T03:05:56.318Z,99.90
2018-05-31T03:08:24.515Z,99.90
2018-05-31T03:10:52.715Z,99.90
2018-05-31T03:13:20.918Z,99.90
2018-05-31T03:15:50.614Z,99.90
2018-05-31T03:18:18.831Z,99.90
2018-05-31T03:20:47.779Z,99.90
2018-05-31T03:23:15.990Z,99.90
2018-05-31T03:25:44.972Z,99.90
2018-05-31T03:28:13.399Z,99.90
2018-05-31T03:30:41.609Z,99.90
2018-05-31T03:33:11.299Z,99.90
2018-05-31T03:35:39.510Z,99.90
2018-05-31T03:38:07.827Z,99.90
2018-05-31T03:40:36.043Z,99.90
2018-05-31T03:43:05.740Z,99.90
2018-05-31T03:45:33.938Z,99.90
2018-05-31T03:48:02.902Z,99.90
2018-05-31T03:50:31.117Z,99.90
2018-05-31T03:52:59.311Z,99.90
2018-05-31T03:55:27.520Z,99.90
2018-05-31T03:57:55.771Z,99.90
2018-05-31T04:00:23.974Z,99.90
2018-05-31T04:02:52.154Z,99.90
2018-05-31T04:05:21.870Z,99.90
2018-05-31T04:07:50.667Z,99.90
2018-05-31T04:10:18.906Z,99.90
2018-05-31T04:12:47.946Z,99.90
2018-05-31T04:15:16.923Z,99.90
2018-05-31T04:17:45.099Z,99.90
2018-05-31T04:20:13.299Z,99.90
2018-05-31T04:22:41.486Z,99.90
2018-05-31T04:25:09.698Z,99.90
2018-05-31T04:27:37.882Z,99.90
2018-05-31T04:30:06.087Z,99.90
2018-05-31T04:32:34.284Z,99.90
2018-05-31T04:35:02.496Z,99.90
2018-05-31T04:37:30.730Z,99.90
2018-05-31T04:39:58.951Z,99.90
2018-05-31T04:42:27.151Z,99.90
2018-05-31T04:44:55.362Z,99.90
2018-05-31T04:47:23.686Z,99.90
2018-05-31T04:49:51.890Z,99.90
2018-05-31T04:52:20.087Z,99.90
2018-05-31T04:54:48.275Z,99.90
2018-05-31T04:57:16.484Z,99.90
2018-05-31T04:59:45.444Z,99.90
2018-05-31T05:02:13.641Z,99.90
2018-05-31T05:04:42.612Z,99.90
2018-05-31T05:07:10.811Z,99.90
2018-05-31T05:09:39.772Z,99.90
2018-05-31T05:12:08.069Z,99.90
2018-05-31T05:14:36.262Z,99.90
2018-05-31T05:17:04.623Z,99.90
2018-05-31T05:19:32.810Z,99.90
2018-05-31T05:22:01.781Z,99.90
2018-05-31T05:24:29.971Z,99.90
2018-05-31T05:26:58.942Z,99.90
2018-05-31T05:29:27.139Z,99.90
2018-05-31T05:31:56.117Z,99.90
2018-05-31T05:34:24.297Z,99.90
2018-05-31T05:36:52.645Z,99.90
2018-05-31T05:39:21.622Z,99.90
2018-05-31T05:41:49.833Z,99.90
2018-05-31T05:44:18.786Z,99.90
2018-05-31T05:46:47.070Z,99.90
2018-05-31T05:49:15.262Z,99.90
2018-05-31T05:51:43.474Z,99.90
2018-05-31T05:54:11.668Z,99.90
2018-05-31T05:56:39.883Z,99.90
2018-05-31T05:59:08.067Z,99.90
2018-05-31T06:01:36.270Z,99.90
2018-05-31T06:04:04.454Z,99.90
2018-05-31T06:06:32.787Z,99.90
2018-05-31T06:09:01.746Z,99.90
2018-05-31T06:11:29.963Z,99.90
2018-05-31T06:13:58.910Z,99.90
2018-05-31T06:16:27.209Z,99.90
2018-05-31T06:18:55.384Z,99.90
2018-05-31T06:21:23.576Z,99.90
2018-05-31T06:23:52.550Z,99.70
2018-05-31T06:26:20.753Z,99.70
2018-05-31T06:28:49.715Z,99.90
2018-05-31T06:31:17.910Z,99.90
2018-05-31T06:33:46.894Z,99.20
2018-05-31T06:36:15.842Z,99.90
2018-05-31T06:38:44.054Z,99.90
2018-05-31T06:41:13.006Z,98.70
2018-05-31T06:43:41.222Z,98.70
2018-05-31T06:46:09.445Z,98.90
2018-05-31T06:48:37.653Z,98.60
2018-05-31T06:51:05.833Z,97.90
2018-05-31T06:53:34.041Z,97.50
2018-05-31T06:56:05.711Z,98.30
2018-05-31T06:58:35.466Z,98.40
2018-05-31T07:01:03.654Z,98.40
2018-05-31T07:03:32.627Z,97.30
2018-05-31T07:06:02.329Z,97.50
2018-05-31T07:08:30.527Z,97.50
2018-05-31T07:10:59.492Z,97.50
2018-05-31T07:13:27.695Z,97.50
2018-05-31T07:15:56.144Z,97.90
2018-05-31T07:18:24.351Z,97.90
2018-05-31T07:20:53.308Z,97.00
2018-05-31T07:23:21.520Z,97.00
2018-05-31T07:25:50.468Z,95.10
2018-05-31T07:28:18.675Z,95.00
2018-05-31T07:30:47.630Z,95.50
2018-05-31T07:33:15.831Z,95.40
2018-05-31T07:35:44.043Z,94.70
2018-05-31T07:38:12.247Z,94.30
2018-05-31T07:40:40.441Z,94.80
2018-05-31T07:43:08.655Z,94.10
2018-05-31T07:45:37.602Z,94.60
2018-05-31T07:48:05.809Z,94.90
2018-05-31T07:50:34.885Z,94.10
2018-05-31T07:53:03.077Z,94.40
2018-05-31T07:55:32.056Z,94.20
2018-05-31T07:58:01.006Z,94.80
2018-05-31T08:00:29.323Z,94.60
2018-05-31T08:02:57.590Z,94.40
2018-05-31T08:05:25.794Z,93.90
2018-05-31T08:07:53.983Z,93.00
2018-05-31T08:10:22.178Z,92.50
2018-05-31T08:12:50.359Z,92.20
2018-05-31T08:15:18.640Z,93.30
2018-05-31T08:17:46.818Z,93.50
2018-05-31T08:20:15.038Z,93.90
2018-05-31T08:22:43.239Z,93.40
2018-05-31T08:25:11.546Z,93.60
2018-05-31T08:27:39.736Z,93.20
2018-05-31T08:30:08.729Z,92.00
2018-05-31T08:32:37.687Z,92.10
2018-05-31T08:35:05.990Z,92.10
2018-05-31T08:37:34.946Z,91.90
2018-05-31T08:40:04.076Z,91.50
2018-05-31T08:42:32.287Z,91.40
2018-05-31T08:45:00.498Z,92.00
2018-05-31T08:47:28.710Z,90.30
2018-05-31T08:49:56.943Z,90.40
2018-05-31T08:52:25.159Z,90.00
2018-05-31T08:54:53.403Z,88.20
2018-05-31T08:57:22.429Z,86.10
2018-05-31T08:59:50.718Z,86.10
2018-05-31T09:02:18.931Z,85.50
2018-05-31T09:04:47.235Z,86.20
2018-05-31T09:07:15.442Z,85.20
2018-05-31T09:09:43.647Z,84.90
2018-05-31T09:12:12.809Z,85.00
2018-05-31T09:14:41.011Z,83.00
2018-05-31T09:17:09.242Z,87.70
2018-05-31T09:19:37.443Z,85.70
2018-05-31T09:22:05.678Z,82.70
2018-05-31T09:24:34.026Z,85.70
2018-05-31T09:27:02.241Z,83.30
2018-05-31T09:29:30.435Z,85.30
2018-05-31T09:31:58.659Z,85.60
2018-05-31T09:34:26.928Z,85.00
2018-05-31T09:36:55.162Z,83.90
2018-05-31T09:39:23.366Z,84.40
2018-05-31T09:41:51.590Z,84.20
2018-05-31T09:44:19.796Z,85.10
2018-05-31T09:46:48.035Z,83.50
2018-05-31T09:49:18.220Z,82.50
2018-05-31T09:51:47.631Z,79.10
2018-05-31T09:54:16.074Z,79.10
2018-05-31T09:56:44.306Z,81.60
2018-05-31T09:59:12.559Z,83.10
2018-05-31T10:01:40.787Z,82.40
2018-05-31T10:04:09.092Z,81.40
2018-05-31T10:06:38.207Z,80.50
2018-05-31T10:09:07.166Z,81.50
2018-05-31T10:11:35.475Z,81.50
2018-05-31T10:14:03.679Z,80.40
2018-05-31T10:16:31.898Z,79.00
2018-05-31T10:19:00.099Z,79.00
2018-05-31T10:21:28.297Z,81.70
2018-05-31T10:23:56.539Z,80.50
2018-05-31T10:26:26.454Z,76.80
2018-05-31T10:28:54.829Z,76.70
2018-05-31T10:31:23.786Z,80.00
2018-05-31T10:33:52.107Z,79.90
2018-05-31T10:36:20.315Z,80.80
2018-05-31T10:38:48.546Z,82.30
2018-05-31T10:41:17.507Z,80.60
2018-05-31T10:43:45.791Z,80.60
2018-05-31T10:46:14.769Z,79.40
2018-05-31T10:48:43.862Z,79.30
2018-05-31T10:51:12.058Z,77.80
2018-05-31T10:53:41.056Z,77.00
2018-05-31T10:56:10.020Z,76.80
2018-05-31T10:58:38.636Z,76.80
2018-05-31T11:01:07.697Z,77.50
2018-05-31T11:03:35.999Z,77.40
2018-05-31T11:06:04.211Z,75.50
2018-05-31T11:08:32.455Z,72.80
2018-05-31T11:11:01.390Z,74.00
2018-05-31T11:13:29.702Z,74.00
2018-05-31T11:15:58.670Z,74.10
2018-05-31T11:18:26.900Z,74.10
2018-05-31T11:20:55.108Z,76.00
2018-05-31T11:23:23.315Z,73.80
2018-05-31T11:25:52.280Z,74.00
2018-05-31T11:28:20.495Z,73.60
2018-05-31T11:30:48.695Z,72.50
2018-05-31T11:33:16.909Z,72.60
2018-05-31T11:35:45.112Z,72.30
2018-05-31T11:38:14.093Z,70.10
2018-05-31T11:40:43.059Z,71.20
2018-05-31T11:43:11.291Z,71.20
2018-05-31T11:45:39.497Z,71.40
2018-05-31T11:48:07.726Z,69.20
2018-05-31T11:50:35.934Z,68.90
2018-05-31T11:53:04.141Z,69.20
2018-05-31T11:55:33.252Z,71.00
2018-05-31T11:58:02.206Z,68.00
2018-05-31T12:00:30.449Z,68.00
2018-05-31T12:02:58.634Z,71.40
2018-05-31T12:05:27.550Z,70.50
2018-05-31T12:07:57.463Z,70.20
2018-05-31T12:10:25.710Z,70.10
2018-05-31T12:12:54.026Z,69.50
2018-05-31T12:15:22.250Z,67.70
2018-05-31T12:17:50.438Z,67.70
2018-05-31T12:20:18.670Z,67.20
2018-05-31T12:22:48.762Z,67.20
2018-05-31T12:25:17.760Z,69.40
2018-05-31T12:27:46.731Z,66.30
2018-05-31T12:30:14.950Z,66.30
2018-05-31T12:32:43.144Z,67.30
2018-05-31T12:35:11.444Z,68.50
2018-05-31T12:37:39.760Z,69.80
2018-05-31T12:40:08.105Z,65.20
2018-05-31T12:42:36.538Z,62.70
2018-05-31T12:45:04.886Z,66.30
2018-05-31T12:47:33.889Z,63.50
2018-05-31T12:50:02.185Z,66.40
2018-05-31T12:52:31.405Z,66.60
2018-05-31T12:54:59.686Z,67.40
2018-05-31T12:57:27.906Z,68.00
2018-05-31T12:59:56.887Z,66.40
2018-05-31T13:02:25.858Z,67.40
2018-05-31T13:04:54.083Z,68.20
2018-05-31T13:07:22.278Z,65.90
2018-05-31T13:09:50.498Z,68.20
2018-05-31T13:12:18.765Z,64.80
2018-05-31T13:14:47.754Z,65.00
2018-05-31T13:17:16.043Z,64.00
2018-05-31T13:19:44.998Z,65.10
2018-05-31T13:22:13.306Z,65.20
2018-05-31T13:24:42.314Z,63.00
2018-05-31T13:27:10.491Z,63.00
2018-05-31T13:29:38.691Z,63.70
2018-05-31T13:32:06.908Z,66.50
2018-05-31T13:34:35.107Z,66.00
2018-05-31T13:37:03.372Z,67.80
2018-05-31T13:39:32.339Z,66.30
2018-05-31T13:42:01.550Z,64.50
2018-05-31T13:44:30.516Z,66.10
2018-05-31T13:46:58.739Z,66.10
2018-05-31T13:49:26.939Z,64.10
2018-05-31T13:51:56.715Z,63.50
2018-05-31T13:54:25.685Z,64.30
2018-05-31T13:56:53.901Z,64.30
2018-05-31T13:59:22.090Z,66.50
2018-05-31T14:01:50.429Z,62.60
2018-05-31T14:04:19.395Z,63.30
2018-05-31T14:06:48.395Z,63.60
2018-05-31T14:09:17.371Z,62.60
2018-05-31T14:11:45.588Z,62.60
2018-05-31T14:14:13.775Z,62.50
2018-05-31T14:16:41.999Z,61.90
2018-05-31T14:19:10.969Z,63.00
2018-05-31T14:21:39.338Z,63.00
2018-05-31T14:24:07.523Z,63.30
2018-05-31T14:26:35.750Z,61.60
2018-05-31T14:29:03.948Z,61.00
2018-05-31T14:31:32.275Z,61.80
2018-05-31T14:34:00.482Z,59.50
2018-05-31T14:36:28.674Z,58.20
2018-05-31T14:38:56.890Z,59.10
2018-05-31T14:41:25.862Z,60.90
2018-05-31T14:43:54.070Z,60.70
2018-05-31T14:46:22.263Z,61.50
2018-05-31T14:48:50.524Z,61.20
2018-05-31T14:51:20.081Z,60.00
2018-05-31T14:53:48.294Z,61.20
2018-05-31T14:56:17.455Z,60.40
2018-05-31T14:58:45.679Z,60.40
2018-05-31T15:01:14.819Z,63.30
2018-05-31T15:03:43.934Z,61.60
2018-05-31T15:06:12.899Z,60.50
2018-05-31T15:08:41.216Z,60.50
2018-05-31T15:11:10.163Z,60.90
2018-05-31T15:13:38.389Z,60.80
2018-05-31T15:16:06.592Z,61.60
2018-05-31T15:18:34.822Z,60.50
2018-05-31T15:21:09.642Z,62.20
2018-05-31T15:23:38.631Z,60.70
2018-05-31T15:26:06.923Z,60.60
2018-05-31T15:28:35.911Z,62.50
2018-05-31T15:31:04.147Z,62.50
2018-05-31T15:33:32.358Z,61.10
2018-05-31T15:36:01.048Z,60.70
2018-05-31T15:38:30.629Z,62.30
2018-05-31T15:40:58.887Z,61.90
2018-05-31T15:43:28.614Z,60.00
2018-05-31T15:45:56.805Z,59.90
2018-05-31T15:48:25.782Z,60.00
2018-05-31T15:50:54.747Z,60.20
2018-05-31T15:53:23.001Z,60.20
2018-05-31T15:55:51.944Z,61.40
2018-05-31T15:58:20.930Z,62.10
2018-05-31T16:00:49.886Z,62.10
2018-05-31T16:03:18.114Z,62.10
2018-05-31T16:05:46.386Z,64.20
2018-05-31T16:08:15.327Z,63.90
2018-05-31T16:10:43.643Z,63.80
2018-05-31T16:13:12.919Z,62.40
2018-05-31T16:15:41.144Z,62.40
2018-05-31T16:18:09.950Z,62.50
2018-05-31T16:20:38.259Z,64.10
2018-05-31T16:23:06.447Z,64.60
2018-05-31T16:25:35.434Z,65.50
2018-05-31T16:28:04.399Z,65.90
2018-05-31T16:30:32.622Z,65.80
2018-05-31T16:33:00.827Z,67.40
2018-05-31T16:35:29.038Z,68.90
2018-05-31T16:37:57.234Z,69.50
2018-05-31T16:40:25.609Z,70.50
2018-05-31T16:42:54.747Z,72.00
2018-05-31T16:45:22.987Z,71.90
2018-05-31T16:47:51.951Z,70.80
2018-05-31T16:50:20.234Z,70.70
2018-05-31T16:52:49.190Z,67.40
2018-05-31T16:55:17.410Z,67.40
2018-05-31T16:57:46.367Z,66.40
2018-05-31T17:00:14.651Z,66.30
2018-05-31T17:02:44.373Z,66.80
2018-05-31T17:05:13.347Z,69.40
2018-05-31T17:07:41.559Z,68.70
2018-05-31T17:10:09.782Z,68.90
2018-05-31T17:12:37.973Z,70.70
2018-05-31T17:15:06.195Z,72.40
2018-05-31T17:17:34.383Z,71.50
2018-05-31T17:20:02.694Z,73.60
2018-05-31T17:22:30.891Z,76.10
2018-05-31T17:24:59.111Z,76.90
2018-05-31T17:27:27.309Z,77.40
2018-05-31T17:29:56.314Z,79.90
2018-05-31T17:32:25.291Z,78.90
2018-05-31T17:34:53.506Z,78.90
2018-05-31T17:37:21.711Z,79.80
2018-05-31T17:39:49.928Z,81.70
2018-05-31T17:42:18.894Z,83.80
2018-05-31T17:44:47.115Z,83.70
2018-05-31T17:47:15.315Z,78.70
2018-05-31T17:49:43.649Z,78.90
2018-05-31T17:52:12.610Z,78.80
2018-05-31T17:54:40.827Z,78.80
2018-05-31T17:57:09.028Z,79.60
2018-05-31T17:59:37.359Z,79.70
2018-05-31T18:02:06.319Z,81.80
2018-05-31T18:04:34.538Z,81.80
2018-05-31T18:07:02.734Z,84.80
2018-05-31T18:09:30.931Z,88.10
2018-05-31T18:11:59.137Z,85.50
2018-05-31T18:14:28.119Z,82.30
2018-05-31T18:16:57.107Z,83.00
2018-05-31T18:19:25.362Z,83.00
2018-05-31T18:21:53.594Z,83.50
2018-05-31T18:24:21.786Z,87.70
2018-05-31T18:26:50.018Z,88.60
2018-05-31T18:29:18.506Z,89.50
2018-05-31T18:31:47.490Z,83.30
2018-05-31T18:34:16.462Z,84.00
2018-05-31T18:36:44.679Z,84.00
2018-05-31T18:39:12.874Z,84.30
2018-05-31T18:41:41.578Z,84.70
2018-05-31T18:44:09.775Z,84.80
2018-05-31T18:46:37.982Z,84.10
2018-05-31T18:49:06.193Z,83.20
2018-05-31T18:51:34.418Z,84.50
2018-05-31T18:54:02.614Z,85.50
2018-05-31T18:56:30.835Z,84.80
2018-05-31T18:58:59.807Z,84.10
2018-05-31T19:01:29.552Z,81.40
2018-05-31T19:03:58.514Z,81.00
2018-05-31T19:06:26.928Z,80.90
2018-05-31T19:08:55.883Z,82.40
2018-05-31T19:11:24.094Z,82.40
2018-05-31T19:13:58.292Z,82.50
2018-05-31T19:16:26.562Z,82.00
2018-05-31T19:22:00.699Z,83.90
2018-05-31T19:24:35.427Z,83.30
2018-05-31T19:27:04.423Z,84.20
2018-05-31T19:29:33.394Z,84.10
2018-05-31T19:32:01.623Z,84.10
2018-05-31T19:34:29.876Z,83.00
2018-05-31T19:37:13.784Z,81.70
2018-05-31T19:39:41.983Z,80.30
2018-05-31T19:42:16.667Z,80.10
2018-05-31T19:44:44.868Z,80.10
2018-05-31T19:47:13.853Z,80.10
2018-05-31T19:49:42.046Z,80.00
2018-05-31T19:52:16.763Z,80.50
2018-05-31T19:54:44.946Z,80.50
2018-05-31T19:57:13.320Z,81.00
2018-05-31T19:59:48.087Z,82.10
2018-05-31T20:02:22.147Z,81.30
2018-05-31T20:04:51.106Z,83.20
2018-05-31T20:07:19.331Z,83.10
2018-05-31T20:09:47.538Z,84.50
2018-05-31T20:12:15.743Z,85.20
2018-05-31T20:14:44.715Z,86.80
2018-05-31T20:17:12.936Z,86.80
2018-05-31T20:19:41.895Z,89.20
2018-05-31T20:22:10.127Z,89.20
2018-05-31T20:24:38.326Z,88.70
2018-05-31T20:27:06.534Z,88.20
2018-05-31T20:29:34.767Z,88.90
2018-05-31T20:32:02.978Z,88.90
2018-05-31T20:34:31.264Z,89.40
2018-05-31T20:37:00.247Z,90.30
2018-05-31T20:39:28.447Z,90.30
2018-05-31T20:41:56.658Z,90.40
2018-05-31T20:44:24.988Z,90.80
2018-05-31T20:46:53.958Z,90.50
2018-05-31T20:49:22.246Z,90.50
2018-05-31T20:51:50.402Z,90.70
2018-05-31T20:54:18.599Z,90.90
2018-05-31T20:56:46.791Z,91.10
2018-05-31T20:59:15.118Z,91.20
2018-05-31T21:01:43.301Z,91.40
2018-05-31T21:04:11.503Z,91.70
2018-05-31T21:06:40.447Z,92.00
2018-05-31T21:09:08.658Z,92.00
2018-05-31T21:11:37.639Z,92.90
2018-05-31T21:14:05.835Z,92.90
2018-05-31T21:16:34.783Z,93.70
2018-05-31T21:19:03.078Z,93.60
2018-05-31T21:21:31.242Z,93.90
2018-05-31T21:23:59.438Z,94.60
2018-05-31T21:26:28.390Z,95.50
2018-05-31T21:28:56.655Z,95.40
2018-05-31T21:31:24.834Z,95.40
2018-05-31T21:33:53.036Z,95.40
2018-05-31T21:36:21.266Z,95.20
2018-05-31T21:38:50.182Z,95.20
2018-05-31T21:41:18.367Z,95.20
2018-05-31T21:43:46.566Z,95.50
2018-05-31T21:46:15.507Z,96.20
2018-05-31T21:48:43.712Z,96.20
2018-05-31T21:51:12.695Z,96.10
2018-05-31T21:53:40.898Z,96.00
2018-05-31T21:56:09.836Z,96.10
2018-05-31T21:58:38.103Z,96.10
2018-05-31T22:01:06.289Z,95.90
2018-05-31T22:03:34.489Z,95.90
2018-05-31T22:06:03.435Z,96.10
2018-05-31T22:08:31.747Z,95.80
2018-05-31T22:10:59.926Z,95.90
2018-05-31T22:13:28.123Z,95.80
2018-05-31T22:15:57.063Z,96.30
2018-05-31T22:18:25.270Z,96.30
2018-05-31T22:20:54.518Z,95.70
2018-05-31T22:23:22.724Z,95.70
2018-05-31T22:25:50.906Z,95.50
2018-05-31T22:28:20.693Z,95.10
2018-05-31T22:30:50.378Z,95.00
2018-05-31T22:33:18.550Z,95.00
2018-05-31T22:35:46.742Z,94.60
2018-05-31T22:38:15.082Z,94.30
2018-05-31T22:40:43.286Z,93.30
2018-05-31T22:43:11.495Z,93.50
2018-05-31T22:45:39.760Z,94.30
2018-05-31T22:48:09.427Z,94.40
2018-05-31T22:50:37.626Z,94.40
2018-05-31T22:53:05.803Z,93.90
2018-05-31T22:55:35.522Z,93.50
2018-05-31T22:58:03.955Z,93.50
2018-05-31T23:00:32.155Z,93.70
2018-05-31T23:03:00.330Z,93.00
2018-05-31T23:05:28.526Z,92.80
2018-05-31T23:07:56.745Z,93.20
2018-05-31T23:10:24.943Z,93.10
2018-05-31T23:12:53.114Z,93.90
2018-05-31T23:15:21.326Z,93.80
2018-05-31T23:17:49.495Z,93.70
2018-05-31T23:20:18.458Z,94.50
2018-05-31T23:22:46.639Z,94.50
2018-05-31T23:25:14.838Z,95.20
2018-05-31T23:27:43.788Z,95.30
2018-05-31T23:30:11.987Z,95.30
2018-05-31T23:32:40.166Z,95.20
2018-05-31T23:35:09.134Z,95.20
2018-05-31T23:37:37.319Z,95.20
2018-05-31T23:40:05.518Z,95.30
2018-05-31T23:42:33.699Z,95.10
2018-05-31T23:45:01.899Z,95.50
2018-05-31T23:47:30.121Z,95.70
2018-05-31T23:49:58.278Z,94.90
2018-05-31T23:52:26.478Z,95.40
2018-05-31T23:54:55.416Z,95.70
2018-05-31T23:57:23.891Z,96.00
2018-05-31T23:59:52.070Z,96.10
